Time;durP1;ratioP1;P1;durP2;ratioP2;P2;SDS_P1;SDS_P2;PMS_P1;PMS_P2;Temp;Humidity;BMP_temperature;BMP_pressure;BME280_temperature;BME280_humidity;BME280_pressure;Samples;Min_cycle;Max_cycle;Signal;HPM_P1;HPM_P2
2023/05/14 00:01:14;;;;;;;;;25.00;23.67;;;;;11.06;100.00;100058.44;6283787;20;3582599;-62
2023/05/14 00:03:43;;;;;;;;;23.67;23.67;;;;;10.95;100.00;100050.97;6282451;20;2848187;-61
2023/05/14 00:06:11;;;;;;;;;30.33;28.00;;;;;11.03;100.00;100063.09;6316701;20;3603437;-62
2023/05/14 00:08:40;;;;;;;;;25.67;25.67;;;;;10.90;100.00;100052.16;6284662;20;2858921;-63
2023/05/14 00:11:08;;;;;;;;;22.00;22.00;;;;;10.92;100.00;100048.44;6316222;20;3582675;-63
2023/05/14 00:13:37;;;;;;;;;26.67;26.33;;;;;10.92;100.00;100044.91;6278394;20;2856507;-64
2023/05/14 00:16:06;;;;;;;;;25.00;21.67;;;;;10.90;100.00;100034.25;6313385;20;3583694;-63
2023/05/14 00:18:34;;;;;;;;;27.00;26.00;;;;;10.85;100.00;100041.72;6279404;20;2839993;-64
2023/05/14 00:21:03;;;;;;;;;30.33;28.67;;;;;10.92;100.00;100039.53;6281743;20;3599181;-63
2023/05/14 00:23:31;;;;;;;;;26.50;25.50;;;;;10.86;100.00;100045.25;6315068;20;2845187;-64
2023/05/14 00:25:59;;;;;;;;;27.67;25.33;;;;;10.85;100.00;100041.72;6281670;20;3586835;-64
2023/05/14 00:28:28;;;;;;;;;20.50;19.00;;;;;10.86;100.00;100034.50;6282208;20;2837763;-63
2023/05/14 00:30:57;;;;;;;;;30.00;28.67;;;;;10.88;100.00;100032.63;6283071;20;2854640;-63
2023/05/14 00:33:25;;;;;;;;;23.33;21.67;;;;;10.85;100.00;100032.75;6316401;20;3584765;-61
2023/05/14 00:35:54;;;;;;;;;25.67;24.67;;;;;10.85;100.00;100033.66;6279625;20;2845032;-63
2023/05/14 00:38:23;;;;;;;;;21.00;21.00;;;;;10.80;100.00;100026.81;6316885;20;3575451;-63
2023/05/14 00:40:51;;;;;;;;;23.50;22.00;;;;;10.77;100.00;100023.34;6279719;20;2840976;-63
2023/05/14 00:43:21;;;;;;;;;27.00;25.67;;;;;10.73;100.00;100029.84;6282608;20;2839932;-63
2023/05/14 00:45:52;;;;;;;;;28.67;24.67;;;;;10.74;100.00;100026.22;6314003;20;3578514;-63
2023/05/14 00:48:21;;;;;;;;;26.00;26.00;;;;;10.77;100.00;100017.97;6312888;20;2845106;-63
2023/05/14 00:50:50;;;;;;;;;24.50;23.00;;;;;10.80;100.00;100016.06;6282493;20;2838858;-63
2023/05/14 00:53:20;;;;;;;;;30.00;28.00;;;;;10.71;100.00;100025.50;6282601;20;2841958;-63
2023/05/14 00:55:49;;;;;;;;;25.33;23.67;;;;;10.75;100.00;100016.31;6282173;20;2850339;-64
2023/05/14 00:58:18;;;;;;;;;27.00;26.00;;;;;10.76;100.00;100016.22;6315651;20;3594017;-63
2023/05/14 01:00:47;;;;;;;;;26.33;26.00;;;;;10.85;100.00;100017.53;6280598;20;3589824;-62
2023/05/14 01:03:16;;;;;;;;;23.50;23.50;;;;;10.68;100.00;100015.78;6314119;20;2848632;-63
2023/05/14 01:06:10;;;;;;;;;22.00;21.50;;;;;10.80;100.00;100014.25;6282639;20;2843007;-63
2023/05/14 01:09:23;;;;;;;;;26.67;26.67;;;;;10.85;100.00;100006.78;6280407;20;2834849;-63
2023/05/14 01:12:37;;;;;;;;;25.67;24.00;;;;;10.77;100.00;100001.84;6314465;20;3583648;-63
2023/05/14 01:15:28;;;;;;;;;25.67;25.67;;;;;10.73;100.00;100004.81;6284068;20;3598173;-63
2023/05/14 01:18:07;;;;;;;;;26.50;26.50;;;;;10.71;100.00;99993.28;6280976;20;2852353;-63
2023/05/14 01:20:35;;;;;;;;;24.50;23.00;;;;;10.58;100.00;99987.72;6279381;20;2843177;-63
2023/05/14 01:23:04;;;;;;;;;24.50;22.50;;;;;10.53;100.00;99992.50;6280771;20;2834744;-62
2023/05/14 01:25:34;;;;;;;;;29.33;28.33;;;;;10.45;100.00;99981.31;6279440;20;3600387;-62
2023/05/14 01:28:19;;;;;;;;;32.67;25.67;;;;;10.44;100.00;99984.97;6310703;20;2860691;-62
2023/05/14 01:31:12;;;;;;;;;21.33;18.67;;;;;10.44;100.00;99979.59;6315744;20;3554396;-63
2023/05/14 01:33:42;;;;;;;;;23.00;23.00;;;;;10.45;100.00;99974.16;6312120;20;2845112;-63
2023/05/14 01:36:10;;;;;;;;;25.00;25.00;;;;;10.48;100.00;99976.66;6277105;20;2841996;-63
2023/05/14 01:38:44;;;;;;;;;24.67;24.67;;;;;10.44;100.00;99972.41;6279864;20;2848315;-63
2023/05/14 01:41:13;;;;;;;;;25.33;24.00;;;;;10.42;100.00;99971.63;6314569;20;3585875;-64
2023/05/14 01:43:44;;;;;;;;;24.00;22.50;;;;;10.38;100.00;99979.97;6278095;20;2848311;-64
2023/05/14 01:46:12;;;;;;;;;26.50;24.00;;;;;10.38;100.00;99974.59;6280451;20;2846116;-63
2023/05/14 01:48:41;;;;;;;;;24.00;24.00;;;;;10.36;100.00;99971.13;6282181;20;2840942;-63
2023/05/14 01:51:09;;;;;;;;;26.50;26.00;;;;;10.44;100.00;99964.34;6281616;20;2852437;-63
2023/05/14 01:53:37;;;;;;;;;22.00;20.50;;;;;10.47;100.00;99950.75;6280252;20;2839831;-63
2023/05/14 01:56:05;;;;;;;;;27.00;24.00;;;;;10.40;100.00;99951.19;6276680;20;2846099;-63
2023/05/14 01:58:34;;;;;;;;;26.50;23.50;;;;;10.40;100.00;99951.19;6280708;20;2840313;-63
2023/05/14 02:01:01;;;;;;;;;17.50;15.00;;;;;10.45;100.00;99947.31;6276576;20;2492110;-63
2023/05/14 02:03:30;;;;;;;;;26.00;25.00;;;;;10.42;100.00;99946.59;6281260;20;2851354;-63
2023/05/14 02:05:58;;;;;;;;;25.00;22.00;;;;;10.52;100.00;99937.94;6279937;20;2841939;-63
2023/05/14 02:08:26;;;;;;;;;21.50;21.50;;;;;10.57;100.00;99943.06;6276330;20;2852468;-64
2023/05/14 02:10:54;;;;;;;;;22.50;21.00;;;;;10.60;100.00;99940.19;6277447;20;2836757;-63
2023/05/14 02:13:24;;;;;;;;;20.00;20.00;;;;;10.58;100.00;99934.03;6274942;20;2827399;-64
2023/05/14 02:15:53;;;;;;;;;24.00;20.50;;;;;10.55;100.00;99937.75;6272768;20;2838824;-64
2023/05/14 02:18:21;;;;;;;;;27.00;23.50;;;;;10.58;100.00;99923.28;6274335;20;2848232;-63
2023/05/14 02:20:49;;;;;;;;;25.50;25.00;;;;;10.57;100.00;99928.78;6277345;20;2848196;-63
2023/05/14 02:23:17;;;;;;;;;21.50;21.50;;;;;10.67;100.00;99920.09;6280961;20;2839816;-63
2023/05/14 02:25:51;;;;;;;;;20.00;20.00;;;;;10.69;100.00;99928.94;6278226;20;2500303;-64
2023/05/14 02:28:19;;;;;;;;;20.50;20.50;;;;;10.69;100.00;99926.25;6278799;20;2845120;-63
2023/05/14 02:30:47;;;;;;;;;27.50;22.50;;;;;10.71;100.00;99935.06;6278498;20;2500270;-64
2023/05/14 02:33:15;;;;;;;;;25.00;20.33;;;;;10.71;100.00;99940.41;6283422;20;3577340;-63
2023/05/14 02:35:43;;;;;;;;;22.50;21.00;;;;;10.74;100.00;99934.91;6307956;20;2850286;-63
2023/05/14 02:38:12;;;;;;;;;23.00;20.00;;;;;10.75;100.00;99927.69;6277992;20;2844123;-63
2023/05/14 02:40:39;;;;;;;;;21.50;19.50;;;;;10.70;100.00;99936.03;6279217;20;2500389;-62
2023/05/14 02:43:07;;;;;;;;;20.50;19.00;;;;;10.75;100.00;99933.06;6281204;20;2835671;-64
2023/05/14 02:45:35;;;;;;;;;21.00;21.00;;;;;10.74;100.00;99934.91;6277070;20;2852403;-63
2023/05/14 02:48:03;;;;;;;;;18.50;18.50;;;;;10.75;100.00;99925.88;6277490;20;2500302;-63
2023/05/14 02:50:31;;;;;;;;;26.00;25.00;;;;;10.75;100.00;99936.63;6279793;20;2842090;-63
2023/05/14 02:53:00;;;;;;;;;21.67;20.00;;;;;10.77;100.00;99939.22;6281637;20;3578405;-63
2023/05/14 02:55:28;;;;;;;;;20.00;17.00;;;;;10.76;100.00;99932.97;6312142;20;3559613;-64
2023/05/14 02:57:56;;;;;;;;;19.00;16.50;;;;;10.68;100.00;99932.53;6308647;20;2827483;-63
2023/05/14 03:00:25;;;;;;;;;22.00;21.00;;;;;10.72;100.00;99942.16;6278486;20;2836743;-63
2023/05/14 03:02:53;;;;;;;;;21.50;20.50;;;;;10.73;100.00;99943.88;6280037;20;2843141;-64
2023/05/14 03:05:22;;;;;;;;;19.00;16.00;;;;;10.75;100.00;99936.63;6280940;20;2826327;-64
2023/05/14 03:07:52;;;;;;;;;22.50;20.50;;;;;10.77;100.00;99932.03;6276608;20;2843116;-63
2023/05/14 03:10:20;;;;;;;;;19.00;18.50;;;;;10.64;100.00;99933.69;6281781;20;2836744;-64
2023/05/14 03:12:49;;;;;;;;;23.50;19.50;;;;;10.58;100.00;99931.34;6280116;20;2837468;-64
2023/05/14 03:15:16;;;;;;;;;18.00;16.50;;;;;10.55;100.00;99926.16;6277443;20;2500370;-63
2023/05/14 03:17:44;;;;;;;;;23.00;21.00;;;;;10.58;100.00;99923.28;6275990;20;2830518;-64
2023/05/14 03:20:13;;;;;;;;;24.00;20.50;;;;;10.58;100.00;99920.59;6280664;20;2846104;-63
2023/05/14 03:22:41;;;;;;;;;26.00;22.50;;;;;10.65;100.00;99927.38;6278607;20;2845167;-63
2023/05/14 03:25:09;;;;;;;;;26.00;24.00;;;;;10.72;100.00;99927.88;6280647;20;2852406;-64
2023/05/14 03:27:36;;;;;;;;;19.50;19.50;;;;;10.73;100.00;99922.41;6277542;20;2500286;-64
2023/05/14 03:30:05;;;;;;;;;24.50;20.50;;;;;10.71;100.00;99934.19;6282961;20;2840973;-64
2023/05/14 03:32:34;;;;;;;;;24.50;23.00;;;;;10.73;100.00;99927.78;6285638;20;2829592;-63
2023/05/14 03:35:01;;;;;;;;;24.00;22.00;;;;;10.65;100.00;99930.03;6281434;20;2500278;-64
2023/05/14 03:37:29;;;;;;;;;27.50;23.50;;;;;10.61;100.00;99925.81;6283925;20;2853431;-64
2023/05/14 03:39:58;;;;;;;;;20.50;17.00;;;;;10.68;100.00;99924.50;6285059;20;2837744;-64
2023/05/14 03:42:26;;;;;;;;;21.00;18.00;;;;;10.70;100.00;99925.28;6285525;20;2842077;-64
2023/05/14 03:44:53;;;;;;;;;20.00;20.00;;;;;10.68;100.00;99929.00;6280848;20;2500306;-64
2023/05/14 03:47:20;;;;;;;;;19.50;18.00;;;;;10.77;100.00;99934.72;6280550;20;2500354;-64
2023/05/14 03:49:50;;;;;;;;;21.50;19.50;;;;;10.73;100.00;99937.66;6285172;20;2832865;-64
2023/05/14 03:52:18;;;;;;;;;22.50;21.00;;;;;10.70;100.00;99943.22;6285314;20;2835689;-64
2023/05/14 03:54:45;;;;;;;;;19.00;18.00;;;;;10.56;100.00;99941.34;6279732;20;2500277;-64
2023/05/14 03:57:14;;;;;;;;;19.00;18.00;;;;;10.67;100.00;99938.88;6282894;20;2826350;-64
2023/05/14 03:59:42;;;;;;;;;20.00;19.00;;;;;10.69;100.00;99934.31;6281306;20;2830534;-64
2023/05/14 04:02:09;;;;;;;;;16.00;16.00;;;;;10.66;100.00;99925.53;6283954;20;2496146;-64
2023/05/14 04:04:38;;;;;;;;;21.50;20.00;;;;;10.68;100.00;99929.00;6283809;20;2827442;-64
2023/05/14 04:07:07;;;;;;;;;24.00;22.50;;;;;10.63;100.00;99920.34;6283037;20;2849275;-63
2023/05/14 04:09:35;;;;;;;;;16.67;16.00;;;;;10.70;100.00;99911.00;6279448;20;3556563;-64
2023/05/14 04:12:05;;;;;;;;;25.67;21.00;;;;;10.62;100.00;99916.81;6285113;20;2848247;-64
2023/05/14 04:14:33;;;;;;;;;21.00;21.00;;;;;10.61;100.00;99915.09;6315037;20;2841989;-64
2023/05/14 04:17:01;;;;;;;;;26.00;21.50;;;;;10.59;100.00;99914.31;6282162;20;2833603;-64
2023/05/14 04:19:29;;;;;;;;;18.33;17.67;;;;;10.58;100.00;99914.38;6278422;20;3560679;-64
2023/05/14 04:21:58;;;;;;;;;22.00;21.50;;;;;10.67;100.00;99920.09;6280440;20;2848279;-63
2023/05/14 04:24:26;;;;;;;;;24.00;19.50;;;;;10.68;100.00;99929.00;6284404;20;2842982;-64
2023/05/14 04:26:53;;;;;;;;;18.50;18.00;;;;;10.74;100.00;99924.16;6278040;20;2491990;-64
2023/05/14 04:29:21;;;;;;;;;21.50;21.50;;;;;10.64;100.00;99927.47;6282199;20;2837820;-64
2023/05/14 04:31:50;;;;;;;;;16.00;16.00;;;;;10.65;100.00;99919.31;6284494;20;3550259;-63
2023/05/14 04:34:18;;;;;;;;;22.00;22.00;;;;;10.69;100.00;99914.59;6283680;20;2838793;-64
2023/05/14 04:36:45;;;;;;;;;21.00;19.00;;;;;10.84;100.00;99918.22;6281548;20;2500374;-64
2023/05/14 04:39:13;;;;;;;;;17.00;16.00;;;;;10.83;100.00;99920.06;6281764;20;3528599;-64
2023/05/14 04:41:42;;;;;;;;;19.00;18.00;;;;;10.77;100.00;99915.91;6280685;20;2831656;-64
2023/05/14 04:44:11;;;;;;;;;19.00;19.00;;;;;10.77;100.00;99915.91;6282087;20;2500371;-64
2023/05/14 04:46:39;;;;;;;;;18.00;18.00;;;;;10.81;100.00;99918.41;6280700;20;2828386;-64
2023/05/14 04:49:08;;;;;;;;;22.50;20.00;;;;;10.83;100.00;99905.75;6283621;20;2845146;-64
2023/05/14 04:51:36;;;;;;;;;21.50;18.00;;;;;10.81;100.00;99911.22;6280823;20;2835816;-64
2023/05/14 04:54:04;;;;;;;;;30.00;22.00;;;;;10.83;100.00;99916.50;6284637;20;2860787;-64
2023/05/14 04:56:33;;;;;;;;;21.00;19.00;;;;;10.90;100.00;99912.47;6281849;20;2835817;-63
2023/05/14 04:59:01;;;;;;;;;20.50;19.00;;;;;10.96;100.00;99917.50;6281103;20;2837804;-63
2023/05/14 05:01:28;;;;;;;;;19.00;17.00;;;;;11.02;100.00;99909.06;6280230;20;2491971;-64
2023/05/14 05:03:56;;;;;;;;;20.00;19.00;;;;;10.94;100.00;99900.63;6281382;20;2500258;-64
2023/05/14 05:06:24;;;;;;;;;23.00;21.00;;;;;10.93;100.00;99898.91;6281507;20;2839009;-64
2023/05/14 05:08:54;;;;;;;;;22.50;21.50;;;;;11.05;100.00;99898.13;6283509;20;2830507;-64
2023/05/14 05:11:22;;;;;;;;;20.50;19.00;;;;;11.13;99.61;99895.84;6281900;20;2844156;-64
2023/05/14 05:13:50;;;;;;;;;22.00;21.00;;;;;11.17;99.49;99900.09;6281311;20;2494036;-64
2023/05/14 05:16:18;;;;;;;;;19.00;18.00;;;;;11.21;99.27;99885.50;6280585;20;2835819;-64
2023/05/14 05:18:46;;;;;;;;;21.50;19.00;;;;;11.25;99.09;99885.34;6282516;20;2832563;-64
2023/05/14 05:21:14;;;;;;;;;20.00;19.00;;;;;11.39;98.83;99888.03;6283201;20;2837911;-64
2023/05/14 05:23:42;;;;;;;;;18.00;18.00;;;;;11.38;97.92;99889.84;6281678;20;2832599;-64
2023/05/14 05:26:09;;;;;;;;;19.00;18.00;;;;;11.45;98.22;99897.53;6280468;20;2500375;-64
2023/05/14 05:28:37;;;;;;;;;25.00;23.50;;;;;11.42;98.53;99888.69;6280626;20;2845039;-65
2023/05/14 05:31:05;;;;;;;;;19.50;18.00;;;;;11.55;98.09;99894.19;6271342;20;2500309;-65
2023/05/14 05:33:33;;;;;;;;;18.00;16.00;;;;;11.67;97.72;99897.94;6277860;20;2500275;-65
2023/05/14 05:36:02;;;;;;;;;20.00;19.00;;;;;11.69;97.35;99900.50;6280813;20;2833614;-65
2023/05/14 05:38:29;;;;;;;;;19.00;18.00;;;;;11.58;97.02;99904.72;6280775;20;2494269;-65
2023/05/14 05:40:57;;;;;;;;;19.50;19.50;;;;;11.53;97.41;99904.19;6282961;20;2840320;-64
2023/05/14 05:43:27;;;;;;;;;23.00;20.50;;;;;11.72;97.21;99895.81;6285466;20;2850306;-63
2023/05/14 05:45:55;;;;;;;;;20.50;19.00;;;;;11.57;97.76;99897.63;6283584;20;2829451;-64
2023/05/14 05:48:23;;;;;;;;;18.50;17.00;;;;;11.67;97.76;99902.47;6282456;20;2829508;-64
2023/05/14 05:50:52;;;;;;;;;24.50;20.00;;;;;11.70;97.84;99900.44;6281838;20;2842186;-63
2023/05/14 05:53:20;;;;;;;;;19.50;19.50;;;;;11.62;97.10;99895.53;6282336;20;2845086;-63
2023/05/14 05:55:47;;;;;;;;;20.00;19.00;;;;;11.68;97.24;99894.28;6281492;20;2491952;-65
2023/05/14 05:58:17;;;;;;;;;18.00;18.00;;;;;11.78;96.94;99894.56;6284256;20;2829557;-64
2023/05/14 06:00:45;;;;;;;;;12.50;12.50;;;;;11.87;96.67;99899.38;6282867;20;2808652;-64
2023/05/14 06:03:13;;;;;;;;;23.50;20.50;;;;;11.80;96.68;99906.09;6281073;20;2498303;-64
2023/05/14 06:05:41;;;;;;;;;23.50;22.50;;;;;12.02;97.46;99895.72;6282858;20;2843004;-64
2023/05/14 06:08:11;;;;;;;;;23.33;21.00;;;;;12.05;96.27;99898.22;6282242;20;2846126;-64
2023/05/14 06:10:39;;;;;;;;;14.50;14.50;;;;;12.01;95.54;99898.53;6314124;20;2812795;-64
2023/05/14 06:13:06;;;;;;;;;20.00;20.00;;;;;12.03;95.30;99894.78;6278197;20;2483636;-64
2023/05/14 06:15:34;;;;;;;;;21.00;21.00;;;;;12.08;96.15;99892.66;6284454;20;2844107;-64
2023/05/14 06:18:03;;;;;;;;;20.00;19.00;;;;;12.04;95.04;99890.25;6279881;20;2835811;-65
2023/05/14 06:20:31;;;;;;;;;27.67;25.67;;;;;12.32;94.88;99899.22;6284662;20;3600379;-64
2023/05/14 06:23:00;;;;;;;;;26.67;22.00;;;;;12.38;94.25;99893.44;6284322;20;2854561;-65
2023/05/14 06:25:28;;;;;;;;;32.33;27.33;;;;;12.39;95.98;99890.63;6316733;20;3600261;-65
2023/05/14 06:27:57;;;;;;;;;26.33;22.00;;;;;12.54;94.63;99914.84;6283021;20;2845331;-64
2023/05/14 06:30:25;;;;;;;;;21.50;20.00;;;;;12.48;95.35;99897.22;6311420;20;2839971;-65
2023/05/14 06:32:54;;;;;;;;;19.00;19.00;;;;;12.39;94.44;99903.25;6283501;20;2833732;-65
2023/05/14 06:35:23;;;;;;;;;21.50;21.50;;;;;12.42;93.76;99906.59;6281822;20;2836865;-64
2023/05/14 06:37:51;;;;;;;;;23.00;17.50;;;;;12.50;94.87;99901.56;6280622;20;2825356;-65
2023/05/14 06:40:19;;;;;;;;;18.00;17.33;;;;;12.49;94.24;99904.38;6279949;20;3557571;-65
2023/05/14 06:42:47;;;;;;;;;22.00;20.00;;;;;12.51;94.09;99900.59;6279911;20;2500278;-65
2023/05/14 06:45:15;;;;;;;;;24.00;22.00;;;;;12.59;93.48;99901.94;6283822;20;2850335;-64
2023/05/14 06:47:44;;;;;;;;;25.00;22.33;;;;;12.55;94.68;99893.19;6284149;20;2850384;-64
2023/05/14 06:50:12;;;;;;;;;30.67;29.67;;;;;12.67;93.78;99889.69;6316715;20;3586721;-64
2023/05/14 06:52:42;;;;;;;;;24.00;23.00;;;;;12.61;93.68;99897.28;6281930;20;2847296;-64
2023/05/14 06:55:10;;;;;;;;;21.00;18.00;;;;;12.48;92.94;99892.75;6278644;20;2829854;-64
2023/05/14 06:57:38;;;;;;;;;19.50;19.50;;;;;12.51;93.06;99886.28;6282493;20;2837787;-64
2023/05/14 07:00:08;;;;;;;;;18.67;18.67;;;;;12.55;92.68;99885.09;6280781;20;3565876;-63
2023/05/14 07:02:36;;;;;;;;;22.00;21.00;;;;;12.61;92.84;99883.81;6281791;20;2847223;-64
2023/05/14 07:05:05;;;;;;;;;24.50;22.50;;;;;12.62;94.15;99880.19;6286444;20;2843012;-64
2023/05/14 07:07:33;;;;;;;;;22.00;22.00;;;;;12.83;93.44;99876.03;6286171;20;2844104;-64
2023/05/14 07:10:02;;;;;;;;;19.00;19.00;;;;;12.66;92.55;99881.69;6287000;20;2829448;-63
2023/05/14 07:12:30;;;;;;;;;20.50;20.50;;;;;12.69;93.09;99868.00;6287633;20;2834770;-64
2023/05/14 07:14:58;;;;;;;;;21.67;20.00;;;;;12.78;92.70;99862.00;6285141;20;3560672;-63
2023/05/14 07:17:26;;;;;;;;;21.33;21.33;;;;;13.01;92.24;99865.84;6321793;20;3574341;-63
2023/05/14 07:19:55;;;;;;;;;22.00;20.67;;;;;13.03;92.60;99863.00;6279331;20;2846259;-63
2023/05/14 07:22:24;;;;;;;;;19.33;19.33;;;;;13.08;91.73;99855.47;6319554;20;3573280;-63
2023/05/14 07:24:52;;;;;;;;;23.00;22.33;;;;;13.07;92.74;99848.38;6321135;20;3587981;-64
2023/05/14 07:27:20;;;;;;;;;25.50;21.50;;;;;12.98;92.49;99849.00;6284587;20;2846113;-63
2023/05/14 07:29:50;;;;;;;;;29.67;27.00;;;;;13.17;92.62;99852.16;6286391;20;3602386;-63
2023/05/14 07:32:18;;;;;;;;;21.00;21.00;;;;;13.29;91.49;99856.69;6318236;20;2832586;-64
2023/05/14 07:34:46;;;;;;;;;25.00;22.50;;;;;13.25;90.96;99851.63;6285677;20;2848264;-64
2023/05/14 07:37:14;;;;;;;;;24.50;22.50;;;;;13.14;91.52;99852.38;6284994;20;2845104;-64
2023/05/14 07:39:42;;;;;;;;;20.50;19.50;;;;;13.10;91.26;99842.75;6284796;20;2836738;-64
2023/05/14 07:42:11;;;;;;;;;19.50;19.50;;;;;13.25;91.28;99841.69;6287852;20;2840921;-63
2023/05/14 07:44:51;;;;;;;;;21.50;21.50;;;;;13.32;91.34;99839.44;6285585;20;2837912;-64
2023/05/14 07:47:19;;;;;;;;;21.00;21.00;;;;;13.34;91.13;99838.38;6283820;20;2498224;-62
2023/05/14 07:49:47;;;;;;;;;18.50;18.50;;;;;13.47;91.51;99842.91;6287352;20;2824222;-64
2023/05/14 07:52:15;;;;;;;;;23.50;22.50;;;;;13.42;91.42;99834.28;6285931;20;2846155;-64
2023/05/14 07:54:43;;;;;;;;;23.50;21.00;;;;;13.54;91.37;99830.72;6283217;20;2844087;-64
2023/05/14 07:57:11;;;;;;;;;20.00;19.00;;;;;13.43;90.94;99833.28;6284962;20;3574210;-64
2023/05/14 07:59:39;;;;;;;;;23.00;20.50;;;;;13.32;91.72;99832.25;6283958;20;2833737;-64
2023/05/14 08:02:12;;;;;;;;;24.67;24.67;;;;;13.25;92.18;99824.66;6282777;20;2855698;-64
2023/05/14 08:04:41;;;;;;;;;22.00;22.00;;;;;13.31;92.97;99827.81;6318032;20;3584706;-64
2023/05/14 08:07:09;;;;;;;;;28.00;26.00;;;;;13.47;92.73;99824.03;6282432;20;3584718;-63
2023/05/14 08:09:38;;;;;;;;;20.50;19.00;;;;;13.39;91.99;99828.13;6282397;20;2827458;-63
2023/05/14 08:12:07;;;;;;;;;23.00;22.00;;;;;13.45;92.36;99818.72;6286643;20;2844116;-65
2023/05/14 08:14:36;;;;;;;;;24.00;22.67;;;;;13.72;93.32;99815.03;6282686;20;2843025;-64
2023/05/14 08:17:04;;;;;;;;;21.00;21.00;;;;;13.57;91.74;99817.00;6319873;20;3580548;-62
2023/05/14 08:19:36;;;;;;;;;20.50;19.00;;;;;13.86;91.34;99814.03;6281443;20;2835841;-64
2023/05/14 08:22:04;;;;;;;;;18.50;18.50;;;;;14.13;93.00;99819.22;6285461;20;2836744;-60
2023/05/14 08:24:32;;;;;;;;;23.50;22.00;;;;;14.26;89.97;99823.59;6284822;20;2831543;-60
2023/05/14 08:27:01;;;;;;;;;22.33;22.33;;;;;14.28;89.83;99816.25;6283912;20;2850367;-60
2023/05/14 08:29:29;;;;;;;;;24.67;24.67;;;;;14.49;90.15;99808.34;6317496;20;3600253;-60
2023/05/14 08:31:57;;;;;;;;;22.33;22.00;;;;;14.42;90.67;99800.81;6287385;20;3585907;-60
2023/05/14 08:34:36;;;;;;;;;20.00;20.00;;;;;14.23;90.40;99796.81;6283693;20;2839900;-60
2023/05/14 08:37:04;;;;;;;;;22.33;22.33;;;;;14.53;92.94;99792.78;6317539;20;3596484;-61
2023/05/14 08:39:33;;;;;;;;;22.00;22.00;;;;;14.63;91.92;99790.25;6286261;20;2858683;-61
2023/05/14 08:42:05;;;;;;;;;24.67;24.67;;;;;14.90;92.11;99785.44;6318448;20;3591939;-61
2023/05/14 08:45:05;;;;;;;;;22.00;22.00;;;;;15.13;91.00;99783.59;6283029;20;2838970;-63
2023/05/14 08:47:33;;;;;;;;;21.00;21.00;;;;;14.89;89.40;99778.28;6281576;20;2837917;-61
2023/05/14 08:50:05;;;;;;;;;16.33;16.33;;;;;15.04;90.90;99776.22;6287889;20;3564977;-61
2023/05/14 08:52:33;;;;;;;;;19.00;19.00;;;;;14.43;90.69;99781.81;6312363;20;2840997;-60
2023/05/14 08:55:05;;;;;;;;;21.50;21.50;;;;;14.40;91.31;99773.94;6280544;20;2837919;-60
2023/05/14 08:57:33;;;;;;;;;22.00;19.67;;;;;14.03;92.15;99763.22;6287217;20;3572154;-61
2023/05/14 09:00:21;;;;;;;;;17.50;15.50;;;;;14.17;91.31;99767.56;6279353;20;2823327;-61
2023/05/14 09:02:51;;;;;;;;;27.00;26.00;;;;;14.29;92.51;99757.66;6284269;20;2853405;-61
2023/05/14 09:05:21;;;;;;;;;23.67;23.33;;;;;14.48;91.49;99763.41;6280170;20;3598175;-61
2023/05/14 09:07:49;;;;;;;;;20.00;19.00;;;;;14.47;90.68;99763.53;6283342;20;2496124;-61
2023/05/14 09:10:18;;;;;;;;;23.33;23.33;;;;;14.48;91.04;99767.94;6280770;20;2852859;-61
2023/05/14 09:12:47;;;;;;;;;21.33;20.33;;;;;14.42;91.18;99763.00;6311996;20;2847381;-63
2023/05/14 09:15:15;;;;;;;;;24.00;24.00;;;;;14.28;93.05;99767.63;6316222;20;3602339;-62
2023/05/14 09:17:45;;;;;;;;;25.00;23.00;;;;;14.31;92.91;99749.47;6283254;20;2852397;-62
2023/05/14 09:20:14;;;;;;;;;23.33;22.33;;;;;14.21;92.78;99749.28;6283293;20;2844131;-63
2023/05/14 09:22:42;;;;;;;;;23.33;23.33;;;;;14.24;93.61;99749.94;6306366;20;3584643;-62
2023/05/14 09:25:11;;;;;;;;;25.33;25.33;;;;;14.37;93.58;99743.59;6284930;20;3598280;-62
2023/05/14 09:27:40;;;;;;;;;24.33;20.67;;;;;14.45;93.18;99736.59;6281822;20;2838889;-61
2023/05/14 09:30:13;;;;;;;;;22.00;22.00;;;;;14.65;91.41;99735.13;6315860;20;3584789;-63
2023/05/14 09:32:43;;;;;;;;;24.00;19.50;;;;;14.22;91.72;99740.22;6281098;20;2833689;-63
2023/05/14 09:35:16;;;;;;;;;25.00;24.33;;;;;14.30;95.79;99742.31;6281845;20;2856756;-64
2023/05/14 09:37:53;;;;;;;;;24.67;24.00;;;;;14.48;94.56;99735.50;6317251;20;3596235;-64
2023/05/14 09:40:23;;;;;;;;;22.67;19.67;;;;;14.42;95.31;99725.19;6285425;20;3577351;-64
2023/05/14 09:42:52;;;;;;;;;24.67;23.33;;;;;14.42;93.96;99719.78;6282810;20;3594083;-63
2023/05/14 09:45:21;;;;;;;;;25.33;25.33;;;;;14.62;93.11;99721.00;6281970;20;2856779;-63
2023/05/14 09:47:50;;;;;;;;;27.67;26.67;;;;;14.61;93.50;99730.06;6316221;20;3591966;-64
2023/05/14 09:50:18;;;;;;;;;24.33;24.33;;;;;14.62;94.52;99721.84;6287255;20;3581530;-63
2023/05/14 09:52:47;;;;;;;;;32.33;30.00;;;;;14.56;93.46;99719.63;6280885;20;3587843;-63
2023/05/14 09:55:15;;;;;;;;;31.00;29.00;;;;;14.25;94.73;99719.25;6281277;20;3587734;-63
2023/05/14 09:57:43;;;;;;;;;24.00;22.00;;;;;14.39;95.64;99712.78;6279190;20;2852382;-64
2023/05/14 10:00:14;;;;;;;;;25.67;25.33;;;;;14.48;95.45;99713.91;6283050;20;2858786;-63
2023/05/14 10:02:45;;;;;;;;;28.33;25.33;;;;;14.56;96.05;99716.03;6313021;20;3598171;-63
2023/05/14 10:05:14;;;;;;;;;30.00;28.33;;;;;14.45;95.82;99708.75;6286736;20;3586804;-64
2023/05/14 10:07:47;;;;;;;;;27.33;25.00;;;;;14.35;95.99;99710.41;6279862;20;3602959;-63
2023/05/14 10:10:19;;;;;;;;;24.67;24.67;;;;;14.35;95.51;99703.22;6276225;20;3600263;-64
2023/05/14 10:12:56;;;;;;;;;22.00;19.50;;;;;14.54;96.88;99697.25;6279429;20;2834831;-65
2023/05/14 10:16:07;;;;;;;;;24.00;22.00;;;;;14.56;97.57;99702.53;6272676;20;2807655;-64
2023/05/14 10:18:42;;;;;;;;;34.00;30.00;;;;;14.25;95.88;99702.19;6281266;20;3598215;-63
2023/05/14 10:21:10;;;;;;;;;29.67;27.00;;;;;14.21;97.59;99704.25;6280956;20;3576354;-64
2023/05/14 10:23:40;;;;;;;;;29.67;27.00;;;;;14.32;97.06;99698.00;6277878;20;3603428;-64
2023/05/14 10:26:09;;;;;;;;;33.67;29.67;;;;;14.31;97.38;99687.34;6282507;20;3600379;-63
2023/05/14 10:28:38;;;;;;;;;33.67;30.67;;;;;14.34;98.35;99676.31;6280922;20;3594137;-63
2023/05/14 10:31:09;;;;;;;;;30.50;27.00;;;;;14.28;97.50;99670.38;6277901;20;2835685;-63
2023/05/14 10:33:49;;;;;;;;;23.00;23.00;;;;;14.19;97.75;99659.44;6282282;20;2848285;-61
2023/05/14 10:36:17;;;;;;;;;30.67;26.00;;;;;14.25;97.09;99654.44;6279778;20;3598217;-60
2023/05/14 10:38:46;;;;;;;;;22.50;22.50;;;;;14.16;96.50;99630.81;6277391;20;2858659;-61
2023/05/14 10:41:16;;;;;;;;;28.00;25.00;;;;;14.27;95.94;99636.28;6274941;20;3585789;-60
2023/05/14 10:43:45;;;;;;;;;26.00;24.67;;;;;14.43;96.07;99624.28;6309691;20;3592027;-61
2023/05/14 10:46:14;;;;;;;;;25.00;22.67;;;;;14.42;96.20;99633.34;6272434;20;2842061;-62
2023/05/14 10:48:43;;;;;;;;;24.00;24.00;;;;;14.52;97.36;99634.34;6310786;20;3596246;-61
2023/05/14 10:51:11;;;;;;;;;25.00;23.67;;;;;14.56;96.20;99638.56;6282463;20;3587884;-61
2023/05/14 10:53:41;;;;;;;;;27.00;24.33;;;;;14.52;97.56;99639.75;6271154;20;3584632;-62
2023/05/14 10:56:12;;;;;;;;;23.33;23.33;;;;;14.40;97.92;99648.81;6273045;20;3598284;-61
2023/05/14 10:58:43;;;;;;;;;28.00;26.33;;;;;14.40;98.86;99640.69;6311667;20;3588986;-61
2023/05/14 11:01:13;;;;;;;;;36.67;31.67;;;;;14.43;98.50;99630.53;6283181;20;3604446;-63
2023/05/14 11:03:46;;;;;;;;;33.67;30.00;;;;;14.53;98.91;99636.09;6280423;20;3586774;-61
2023/05/14 11:06:19;;;;;;;;;31.00;27.67;;;;;14.49;99.44;99632.75;6279878;20;2849233;-59
2023/05/14 11:08:50;;;;;;;;;39.00;35.00;;;;;14.49;98.55;99640.00;6317943;20;3605528;-61